Time,TemperatureF,DewpointF,PressureIn,WindDirection,WindDirectionDegrees,WindSpeedMPH,WindSpeedGustMPH,Humidity,HourlyPrecipIn,Conditions,Clouds,dailyrainin,SoftwareType,DateUTC
2013-07-29 00:01:00,61.5,53.5,29.96,ESE,112,0.9,3.5,75,0.00,-RA,,0.00,WeatherDisplay:10.37,2013-07-29 04:01:00,
2013-07-29 00:02:00,61.3,53.3,29.96,WNW,292,2.8,4.6,75,0.00,-RA,,0.00,WeatherDisplay:10.37,2013-07-29 04:02:00,
2013-07-29 00:03:00,61.3,53.3,29.96,NNE,22,2.2,4.6,75,0.00,-RA,,0.00,WeatherDisplay:10.37,2013-07-29 04:03:00,
2013-07-29 00:06:00,61.2,53.6,29.96,West,270,1.6,2.3,76,0.00,-RA,,0.00,WeatherDisplay:10.37,2013-07-29 04:06:00,
2013-07-29 00:11:00,60.8,53.2,29.96,ESE,112,2.5,2.5,76,0.00,-RA,,0.00,WeatherDisplay:10.37,2013-07-29 04:11:00,
2013-07-29 00:16:00,60.6,53.3,29.96,NE,45,2.0,4.6,77,0.00,SCT,,0.00,WeatherDisplay:10.37,2013-07-29 04:16:00,
2013-07-29 00:21:00,60.4,53.2,29.97,WSW,248,2.8,3.5,77,0.00,SCT,,0.00,WeatherDisplay:10.37,2013-07-29 04:21:00,
2013-07-29 00:26:00,60.1,53.2,29.97,SW,225,1.6,2.3,78,0.00,SCT,,0.00,WeatherDisplay:10.37,2013-07-29 04:26:00,
2013-07-29 00:31:00,59.7,53.2,29.97,ESE,112,1.8,2.3,79,0.00,SCT,,0.00,WeatherDisplay:10.37,2013-07-29 04:31:00,
2013-07-29 00:36:00,59.5,53.3,29.97,SE,135,3.2,3.5,80,0.00,SCT,,0.00,WeatherDisplay:10.37,2013-07-29 04:36:00,
2013-07-29 00:41:00,59.4,53.2,29.97,South,180,1.2,2.3,80,0.00,SCT,,0.00,WeatherDisplay:10.37,2013-07-29 04:41:00,
2013-07-29 00:46:00,59.4,53.6,29.97,West,270,0.5,1.1,81,0.00,SCT,,0.00,WeatherDisplay:10.37,2013-07-29 04:46:00,
2013-07-29 00:51:00,59.2,53.4,29.97,SSW,202,1.0,1.1,81,0.00,SCT,,0.00,WeatherDisplay:10.37,2013-07-29 04:51:00,
2013-07-29 00:56:00,59.0,53.2,29.97,SE,135,1.6,2.3,81,0.00,SCT,,0.00,WeatherDisplay:10.37,2013-07-29 04:56:00,
2013-07-29 01:01:00,59.0,52.8,29.97,South,180,3.4,3.5,80,0.00,SCT,,0.00,WeatherDisplay:10.37,2013-07-29 05:01:00,
2013-07-29 01:06:00,59.2,52.3,29.97,ESE,112,0.6,1.7,78,0.00,SCT,,0.00,WeatherDisplay:10.37,2013-07-29 05:06:00,
2013-07-29 01:11:00,58.8,52.0,29.97,SW,225,2.5,2.5,78,0.00,SCT,,0.00,WeatherDisplay:10.37,2013-07-29 05:11:00,
2013-07-29 01:16:00,58.8,52.0,29.97,SE,135,1.7,2.3,78,0.00,SCT,,0.00,WeatherDisplay:10.37,2013-07-29 05:16:00,
2013-07-29 01:21:00,58.6,51.8,29.97,SSW,202,1.8,2.3,78,0.00,SCT,,0.00,WeatherDisplay:10.37,2013-07-29 05:21:00,
2013-07-29 01:26:00,58.5,51.7,29.97,SE,135,1.7,2.3,78,0.00,SCT,,0.00,WeatherDisplay:10.37,2013-07-29 05:26:00,
2013-07-29 01:30:00,66.0,57.5,30.00,SW,214,2.0,2.0,74,0.00,RA,RA,0.07,WeatherDisplay:10.37,2013-07-29 05:30:00,
2013-07-29 01:31:00,58.1,51.3,29.96,WSW,248,0.3,1.1,78,0.00,SCT,,0.00,WeatherDisplay:10.37,2013-07-29 05:31:00,
2013-07-29 01:35:00,66.0,57.8,30.00,SSW,193,3.0,5.0,75,0.00,RA,RA,0.07,WeatherDisplay:10.37,2013-07-29 05:35:00,
2013-07-29 01:36:00,57.7,51.2,29.96,SE,135,2.7,3.5,79,0.00,SCT,,0.00,WeatherDisplay:10.37,2013-07-29 05:36:00,
2013-07-29 01:40:00,66.0,57.8,30.00,SE,130,3.0,5.0,75,0.00,BKN,BKN,0.07,WeatherDisplay:10.37,2013-07-29 05:40:00,
2013-07-29 01:41:00,57.6,51.5,29.96,SSE,158,0.0,0.0,80,0.00,SCT,,0.00,WeatherDisplay:10.37,2013-07-29 05:41:00,
2013-07-29 01:45:00,66.0,57.8,30.00,ESE,112,3.0,5.0,75,0.00,BKN,BKN,0.07,WeatherDisplay:10.37,2013-07-29 05:45:00,
2013-07-29 01:46:00,57.2,51.4,29.96,WSW,248,0.0,0.0,81,0.00,SCT,,0.00,WeatherDisplay:10.37,2013-07-29 05:46:00,
2013-07-29 01:51:00,56.8,51.0,29.96,SW,225,0.7,2.3,81,0.00,SCT,,0.00,WeatherDisplay:10.37,2013-07-29 05:51:00,
2013-07-29 01:56:00,56.8,51.4,29.97,ESE,112,1.1,2.3,82,0.00,SCT,,0.00,WeatherDisplay:10.37,2013-07-29 05:56:00,
2013-07-29 02:01:00,56.7,51.6,29.97,East,90,0.3,1.1,83,0.00,SCT,,0.00,WeatherDisplay:10.37,2013-07-29 06:01:00,
2013-07-29 02:06:00,56.7,51.6,29.96,SW,225,0.0,0.0,83,0.00,SCT,,0.00,WeatherDisplay:10.37,2013-07-29 06:06:00,
2013-07-29 02:11:00,56.5,51.7,29.96,WNW,292,3.6,4.7,84,0.00,SCT,,0.00,WeatherDisplay:10.37,2013-07-29 06:11:00,
2013-07-29 02:16:00,57.4,52.3,29.96,NW,315,3.3,4.6,83,0.00,SCT,,0.00,WeatherDisplay:10.37,2013-07-29 06:16:00,
2013-07-29 02:21:00,58.1,52.6,29.97,North,360,2.8,3.5,82,0.00,SCT,,0.00,WeatherDisplay:10.37,2013-07-29 06:21:00,
2013-07-29 02:26:00,58.1,52.3,29.97,SSW,202,2.0,2.3,81,0.00,SCT,,0.00,WeatherDisplay:10.37,2013-07-29 06:26:00,
2013-07-29 02:31:00,58.5,52.7,29.97,East,90,2.4,2.7,81,0.00,SCT,,0.00,WeatherDisplay:10.37,2013-07-29 06:31:00,
2013-07-29 02:36:00,58.6,53.1,29.97,WSW,248,2.2,3.5,82,0.00,SCT,,0.00,WeatherDisplay:10.37,2013-07-29 06:36:00,
2013-07-29 02:41:00,58.5,53.4,29.97,SSW,202,1.6,2.3,83,0.00,BKN,,0.00,WeatherDisplay:10.37,2013-07-29 06:41:00,
2013-07-29 02:46:00,58.3,53.2,29.97,West,270,1.6,2.3,83,0.00,BKN,,0.00,WeatherDisplay:10.37,2013-07-29 06:46:00,
2013-07-29 02:51:00,58.1,53.0,29.97,ESE,112,1.8,2.3,83,0.00,BKN,,0.00,WeatherDisplay:10.37,2013-07-29 06:51:00,
2013-07-29 02:56:00,57.9,53.1,29.97,ESE,112,0.7,1.1,84,0.00,BKN,,0.00,WeatherDisplay:10.37,2013-07-29 06:56:00,
2013-07-29 03:01:00,57.7,53.2,29.97,NW,315,0.0,0.0,85,0.00,BKN,,0.00,WeatherDisplay:10.37,2013-07-29 07:01:00,
2013-07-29 03:06:00,57.4,53.2,29.96,South,180,3.0,3.5,86,0.00,BKN,,0.00,WeatherDisplay:10.37,2013-07-29 07:06:00,
2013-07-29 03:11:00,57.4,53.6,29.96,South,180,2.2,2.3,87,0.00,BKN,,0.00,WeatherDisplay:10.37,2013-07-29 07:11:00,
2013-07-29 03:16:00,57.2,53.4,29.96,ESE,112,1.9,2.3,87,0.00,BKN,,0.00,WeatherDisplay:10.37,2013-07-29 07:16:00,
2013-07-29 03:21:00,57.2,53.4,29.96,SE,135,2.7,3.5,87,0.00,BKN,,0.00,WeatherDisplay:10.37,2013-07-29 07:21:00,
2013-07-29 03:26:00,57.2,53.4,29.96,South,180,2.0,3.5,87,0.00,BKN,,0.00,WeatherDisplay:10.37,2013-07-29 07:26:00,
2013-07-29 03:31:00,57.4,53.6,29.96,SSE,158,0.2,1.1,87,0.00,BKN,,0.00,WeatherDisplay:10.37,2013-07-29 07:31:00,
2013-07-29 03:36:00,57.4,53.6,29.96,SW,225,1.2,1.7,87,0.00,BKN,,0.00,WeatherDisplay:10.37,2013-07-29 07:36:00,
2013-07-29 03:41:00,57.6,53.8,29.96,SSE,158,2.2,2.3,87,0.01,RA,,0.01,WeatherDisplay:10.37,2013-07-29 07:41:00,
2013-07-29 03:46:00,57.6,54.1,29.97,SW,225,5.0,6.8,88,0.02,RA,,0.02,WeatherDisplay:10.37,2013-07-29 07:46:00,
2013-07-29 03:51:00,57.6,53.8,29.97,South,180,3.6,5.8,87,0.02,RA,,0.02,WeatherDisplay:10.37,2013-07-29 07:51:00,
2013-07-29 03:56:00,57.6,53.8,29.97,WSW,248,1.0,2.7,87,0.02,BKN,,0.02,WeatherDisplay:10.37,2013-07-29 07:56:00,
2013-07-29 04:01:00,57.4,53.9,29.97,South,180,0.1,1.1,88,0.02,BKN,,0.02,WeatherDisplay:10.37,2013-07-29 08:01:00,
2013-07-29 04:06:00,57.6,54.4,29.97,NW,315,0.1,1.1,89,0.02,BKN,,0.02,WeatherDisplay:10.37,2013-07-29 08:06:00,
2013-07-29 04:11:00,57.4,54.5,29.97,SSE,158,1.8,2.3,90,0.02,-RA,,0.02,WeatherDisplay:10.37,2013-07-29 08:11:00,
2013-07-29 04:16:00,57.2,54.6,29.97,SSE,158,3.4,4.6,91,0.02,-RA,,0.02,WeatherDisplay:10.37,2013-07-29 08:16:00,
2013-07-29 04:21:00,57.2,54.6,29.97,SSE,158,2.2,2.7,91,0.02,-RA,,0.02,WeatherDisplay:10.37,2013-07-29 08:21:00,
2013-07-29 04:26:00,57.2,54.6,29.97,ESE,112,2.7,3.5,91,0.02,-RA,,0.02,WeatherDisplay:10.37,2013-07-29 08:26:00,
2013-07-29 04:31:00,57.4,54.5,29.97,SE,135,2.6,3.5,90,0.02,-RA,,0.02,WeatherDisplay:10.37,2013-07-29 08:31:00,
2013-07-29 04:36:00,57.4,54.5,29.97,South,180,1.4,2.3,90,0.02,-RA,,0.02,WeatherDisplay:10.37,2013-07-29 08:36:00,
2013-07-29 04:41:00,57.4,54.5,29.97,ESE,112,0.0,0.0,90,0.01,-RA,,0.02,WeatherDisplay:10.37,2013-07-29 08:41:00,
2013-07-29 04:46:00,57.2,54.3,29.97,SW,225,0.0,0.0,90,0.00,-RA,,0.02,WeatherDisplay:10.37,2013-07-29 08:46:00,
2013-07-29 04:51:00,57.2,54.3,29.97,WSW,248,0.1,1.1,90,0.00,-RA,,0.02,WeatherDisplay:10.37,2013-07-29 08:51:00,
2013-07-29 04:56:00,57.2,54.3,29.98,West,270,0.0,1.1,90,0.00,-RA,,0.02,WeatherDisplay:10.37,2013-07-29 08:56:00,
2013-07-29 05:01:00,57.4,54.8,29.98,SSE,158,2.4,3.5,91,0.00,-RA,,0.02,WeatherDisplay:10.37,2013-07-29 09:01:00,
2013-07-29 05:06:00,57.4,54.8,29.98,SSE,158,1.8,2.7,91,0.01,-RA,,0.03,WeatherDisplay:10.37,2013-07-29 09:06:00,
2013-07-29 05:11:00,57.2,54.6,29.98,West,270,1.3,2.3,91,0.01,RA,,0.03,WeatherDisplay:10.37,2013-07-29 09:11:00,
2013-07-29 05:16:00,57.2,54.6,29.98,West,270,1.5,2.3,91,0.02,RA,,0.04,WeatherDisplay:10.37,2013-07-29 09:16:00,
2013-07-29 05:21:00,57.2,54.6,29.99,West,270,1.4,2.3,91,0.02,RA,,0.04,WeatherDisplay:10.37,2013-07-29 09:21:00,
2013-07-29 05:26:00,57.4,54.8,29.99,SSW,202,2.3,2.3,91,0.02,OVC,,0.04,WeatherDisplay:10.37,2013-07-29 09:26:00,
2013-07-29 05:31:00,57.4,54.8,29.99,SSW,202,0.6,1.1,91,0.03,RA,,0.05,WeatherDisplay:10.37,2013-07-29 09:31:00,
2013-07-29 05:36:00,57.6,55.0,29.99,SSE,158,0.9,1.1,91,0.03,RA,,0.05,WeatherDisplay:10.37,2013-07-29 09:36:00,
2013-07-29 05:41:00,57.6,55.3,29.99,South,180,0.0,0.0,92,0.03,OVC,,0.05,WeatherDisplay:10.37,2013-07-29 09:41:00,
2013-07-29 05:46:00,57.6,55.3,29.99,SSW,202,0.8,1.1,92,0.03,OVC,,0.05,WeatherDisplay:10.37,2013-07-29 09:46:00,
2013-07-29 05:51:00,57.4,55.1,29.99,SSE,158,2.5,2.5,92,0.04,RA,,0.06,WeatherDisplay:10.37,2013-07-29 09:51:00,
2013-07-29 05:56:00,57.4,55.1,29.99,SE,135,0.3,1.1,92,0.04,RA,,0.06,WeatherDisplay:10.37,2013-07-29 09:56:00,
2013-07-29 06:01:00,57.2,54.9,29.99,SSE,158,2.1,2.7,92,0.04,OVC,,0.06,WeatherDisplay:10.37,2013-07-29 10:01:00,
2013-07-29 06:06:00,57.2,54.9,30.00,SW,225,1.0,2.3,92,0.03,OVC,,0.06,WeatherDisplay:10.37,2013-07-29 10:06:00,
2013-07-29 06:11:00,57.2,54.9,30.00,SW,225,2.4,2.4,92,0.03,-RA,,0.06,WeatherDisplay:10.37,2013-07-29 10:11:00,
2013-07-29 06:16:00,57.2,54.6,30.00,SW,225,1.2,2.3,91,0.02,-RA,,0.06,WeatherDisplay:10.37,2013-07-29 10:16:00,
2013-07-29 06:22:00,57.4,54.8,30.00,West,270,2.3,2.3,91,0.02,-RA,,0.06,WeatherDisplay:10.37,2013-07-29 10:22:00,
2013-07-29 06:27:00,57.4,54.8,30.00,West,270,0.8,1.1,91,0.02,-RA,,0.06,WeatherDisplay:10.37,2013-07-29 10:27:00,
2013-07-29 06:32:00,57.4,54.8,30.00,NW,315,2.6,3.5,91,0.01,-RA,,0.06,WeatherDisplay:10.37,2013-07-29 10:32:00,
2013-07-29 06:37:00,57.6,54.7,30.00,WSW,248,1.6,2.3,90,0.01,-RA,,0.06,WeatherDisplay:10.37,2013-07-29 10:37:00,
2013-07-29 06:43:00,57.6,55.0,30.01,West,270,1.6,2.3,91,0.01,-RA,,0.06,WeatherDisplay:10.37,2013-07-29 10:43:00,
2013-07-29 06:48:00,57.6,55.0,30.01,NW,315,0.0,2.3,91,0.01,-RA,,0.06,WeatherDisplay:10.37,2013-07-29 10:48:00,
2013-07-29 06:53:00,57.7,55.1,30.01,NW,315,1.2,2.7,91,0.00,-RA,,0.06,WeatherDisplay:10.37,2013-07-29 10:53:00,
2013-07-29 06:58:00,57.7,55.1,30.01,NNW,338,2.4,2.4,91,0.00,-RA,,0.06,WeatherDisplay:10.37,2013-07-29 10:58:00,
2013-07-29 07:03:00,57.9,55.6,30.01,West,270,2.1,2.3,92,0.00,-RA,,0.06,WeatherDisplay:10.37,2013-07-29 11:03:00,
2013-07-29 07:08:00,57.9,55.6,30.01,WNW,292,3.7,5.8,92,0.00,-RA,,0.06,WeatherDisplay:10.37,2013-07-29 11:08:00,
2013-07-29 07:13:00,57.9,55.9,30.01,SSW,202,2.8,5.8,93,0.01,-RA,,0.07,WeatherDisplay:10.37,2013-07-29 11:13:00,
2013-07-29 07:18:00,57.9,55.9,30.02,West,270,2.2,2.7,93,0.01,-RA,,0.07,WeatherDisplay:10.37,2013-07-29 11:18:00,
2013-07-29 07:24:00,58.1,55.8,30.02,WSW,248,1.5,3.5,92,0.01,-RA,,0.07,WeatherDisplay:10.37,2013-07-29 11:24:00,
2013-07-29 07:29:00,58.3,56.0,30.02,WSW,248,2.6,2.6,92,0.01,-RA,,0.07,WeatherDisplay:10.37,2013-07-29 11:29:00,
2013-07-29 07:34:00,58.5,56.2,30.01,ENE,68,1.3,2.3,92,0.01,-RA,,0.07,WeatherDisplay:10.37,2013-07-29 11:34:00,
2013-07-29 07:39:00,58.8,56.5,30.01,WSW,248,0.5,1.7,92,0.01,-RA,,0.07,WeatherDisplay:10.37,2013-07-29 11:39:00,
2013-07-29 07:44:00,59.2,56.3,30.02,SW,225,2.7,3.5,90,0.01,-RA,,0.07,WeatherDisplay:10.37,2013-07-29 11:44:00,
2013-07-29 07:49:00,59.7,56.8,30.02,WSW,248,1.4,2.2,90,0.01,-RA,,0.07,WeatherDisplay:10.37,2013-07-29 11:49:00,
2013-07-29 07:54:00,60.3,56.7,30.02,WSW,248,3.3,3.5,88,0.01,-RA,,0.07,WeatherDisplay:10.37,2013-07-29 11:54:00,
2013-07-29 08:00:00,60.4,56.8,30.02,WSW,240,2.0,4.0,88,0.00,-RA,-RA,0.07,WeatherDisplay:10.37,2013-07-29 12:00:00,
2013-07-29 08:05:00,62.0,57.5,30.02,SW,229,2.0,3.0,85,0.00,-RA,-RA,0.07,WeatherDisplay:10.37,2013-07-29 12:05:00,
2013-07-29 08:10:00,62.8,57.2,30.02,WSW,244,3.0,5.0,82,0.00,-RA,-RA,0.07,WeatherDisplay:10.37,2013-07-29 12:10:00,
2013-07-29 08:15:00,63.9,57.6,30.02,WSW,245,3.0,5.0,80,0.00,BKN,BKN,0.07,WeatherDisplay:10.37,2013-07-29 12:15:00,
2013-07-29 08:20:00,63.9,56.9,30.02,SSW,209,5.0,6.0,78,0.00,BKN,BKN,0.07,WeatherDisplay:10.37,2013-07-29 12:20:00,
2013-07-29 08:25:00,64.0,56.7,30.02,SW,229,3.0,5.0,77,0.00,BKN,BKN,0.07,WeatherDisplay:10.37,2013-07-29 12:25:00,
2013-07-29 08:30:00,62.9,56.3,30.02,WSW,251,5.0,7.0,79,0.00,BKN,BKN,0.07,WeatherDisplay:10.37,2013-07-29 12:30:00,
2013-07-29 08:35:00,62.2,56.0,30.02,WSW,251,5.0,6.0,80,0.00,BKN,BKN,0.07,WeatherDisplay:10.37,2013-07-29 12:35:00,
2013-07-29 08:40:00,61.8,55.9,30.02,WSW,238,3.0,6.0,81,0.00,BKN,BKN,0.07,WeatherDisplay:10.37,2013-07-29 12:40:00,
2013-07-29 08:45:00,61.8,56.2,30.03,SW,228,2.0,6.0,82,0.00,BKN,BKN,0.07,WeatherDisplay:10.37,2013-07-29 12:45:00,
2013-07-29 08:50:00,62.1,56.5,30.03,West,270,2.9,4.6,82,0.00,BKN,,0.07,WeatherDisplay:10.37,2013-07-29 12:50:00,
2013-07-29 08:55:00,63.9,56.9,30.03,West,270,4.0,6.9,78,0.00,BKN,,0.07,WeatherDisplay:10.37,2013-07-29 12:55:00,
2013-07-29 09:00:00,65.3,57.5,30.03,West,270,4.0,4.6,76,0.00,BKN,,0.07,WeatherDisplay:10.37,2013-07-29 13:00:00,
2013-07-29 09:05:00,65.8,57.3,30.03,WSW,248,4.5,6.9,74,0.00,BKN,,0.07,WeatherDisplay:10.37,2013-07-29 13:05:00,
2013-07-29 09:10:00,67.1,58.2,30.03,WSW,248,3.3,4.7,73,0.00,BKN,,0.07,WeatherDisplay:10.37,2013-07-29 13:10:00,
2013-07-29 09:15:00,66.9,57.2,30.03,West,270,5.1,7.3,71,0.00,BKN,,0.07,WeatherDisplay:10.37,2013-07-29 13:15:00,
2013-07-29 09:21:00,67.1,57.8,30.03,SW,225,5.2,5.8,72,0.00,BKN,,0.07,WeatherDisplay:10.37,2013-07-29 13:21:00,
2013-07-29 09:26:00,67.1,57.4,30.03,WSW,248,5.8,8.1,71,0.00,BKN,,0.07,WeatherDisplay:10.37,2013-07-29 13:26:00,
2013-07-29 09:31:00,68.2,58.0,30.02,East,90,5.4,7.3,70,0.00,BKN,,0.07,WeatherDisplay:10.37,2013-07-29 13:31:00,
2013-07-29 09:37:00,67.8,57.7,30.02,ESE,112,3.0,5.3,70,0.00,BKN,,0.07,WeatherDisplay:10.37,2013-07-29 13:37:00,
2013-07-29 09:42:00,68.5,57.9,30.02,SSW,202,5.6,5.8,69,0.00,BKN,,0.07,WeatherDisplay:10.37,2013-07-29 13:42:00,
2013-07-29 09:47:00,69.6,58.6,30.02,SSE,158,3.4,7.8,68,0.00,BKN,,0.07,WeatherDisplay:10.37,2013-07-29 13:47:00,
2013-07-29 09:52:00,69.4,58.8,30.02,West,270,4.1,5.8,69,0.00,BKN,,0.07,WeatherDisplay:10.37,2013-07-29 13:52:00,
2013-07-29 09:57:00,70.5,59.0,30.02,ESE,112,2.8,5.8,67,0.00,BKN,,0.07,WeatherDisplay:10.37,2013-07-29 13:57:00,
2013-07-29 10:03:00,69.1,58.1,30.02,WSW,248,2.6,5.8,68,0.00,BKN,,0.07,WeatherDisplay:10.37,2013-07-29 14:03:00,
2013-07-29 10:08:00,67.8,57.3,30.02,NW,315,4.9,6.9,69,0.00,BKN,,0.07,WeatherDisplay:10.37,2013-07-29 14:08:00,
2013-07-29 10:13:00,67.1,57.8,30.02,NW,315,2.7,5.8,72,0.00,BKN,,0.07,WeatherDisplay:10.37,2013-07-29 14:13:00,
2013-07-29 10:18:00,67.1,56.6,30.03,West,270,7.6,8.1,69,0.00,BKN,,0.07,WeatherDisplay:10.37,2013-07-29 14:18:00,
2013-07-29 10:23:00,66.2,56.5,30.03,NE,45,6.1,9.2,71,0.00,BKN,,0.07,WeatherDisplay:10.37,2013-07-29 14:23:00,
2013-07-29 10:28:00,65.7,56.0,30.03,SSE,158,5.1,6.8,71,0.00,BKN,,0.07,WeatherDisplay:10.37,2013-07-29 14:28:00,
2013-07-29 10:33:00,65.8,56.1,30.03,SW,225,6.4,10.4,71,0.00,BKN,,0.07,WeatherDisplay:10.37,2013-07-29 14:33:00,
2013-07-29 10:38:00,65.8,56.1,30.03,WSW,248,7.5,8.1,71,0.00,BKN,,0.07,WeatherDisplay:10.37,2013-07-29 14:38:00,
2013-07-29 10:43:00,65.7,56.0,30.04,South,180,6.4,8.1,71,0.00,BKN,,0.07,WeatherDisplay:10.37,2013-07-29 14:43:00,
2013-07-29 10:49:00,65.8,56.9,30.04,West,270,7.0,8.3,73,0.00,BKN,,0.07,WeatherDisplay:10.37,2013-07-29 14:49:00,
2013-07-29 10:55:00,65.8,57.3,30.04,West,270,5.4,6.3,74,0.00,BKN,,0.07,WeatherDisplay:10.37,2013-07-29 14:55:00,
2013-07-29 11:00:00,65.3,56.4,30.04,North,360,7.0,7.3,73,0.00,BKN,,0.07,WeatherDisplay:10.37,2013-07-29 15:00:00,
2013-07-29 11:05:00,65.3,56.4,30.05,WSW,248,7.0,8.3,73,0.00,BKN,,0.07,WeatherDisplay:10.37,2013-07-29 15:05:00,
2013-07-29 11:10:00,65.5,57.4,30.05,West,270,5.8,6.9,75,0.00,BKN,,0.07,WeatherDisplay:10.37,2013-07-29 15:10:00,
2013-07-29 11:15:00,65.5,57.0,30.05,SE,135,5.9,6.9,74,0.00,BKN,,0.07,WeatherDisplay:10.37,2013-07-29 15:15:00,
2013-07-29 11:20:00,65.7,56.8,30.05,South,180,3.5,4.6,73,0.00,BKN,,0.07,WeatherDisplay:10.37,2013-07-29 15:20:00,
2013-07-29 11:25:00,65.8,57.3,30.05,West,270,3.3,4.6,74,0.00,BKN,,0.07,WeatherDisplay:10.37,2013-07-29 15:25:00,
2013-07-29 11:30:00,66.0,57.1,30.05,SE,135,2.9,5.8,73,0.00,BKN,,0.07,WeatherDisplay:10.37,2013-07-29 15:30:00,
2013-07-29 11:45:00,66.0,57.8,30.00,East,90,4.8,5.0,75,0.00,BKN,,0.07,WeatherDisplay:10.37,2013-07-29 15:45:00,
2013-07-29 11:51:00,65.8,57.7,30.05,SSW,202,1.8,2.7,75,0.00,BKN,,0.07,WeatherDisplay:10.37,2013-07-29 15:51:00,
2013-07-29 11:56:00,66.0,57.5,30.05,NW,315,2.3,3.5,74,0.00,BKN,,0.07,WeatherDisplay:10.37,2013-07-29 15:56:00,
2013-07-29 12:02:00,66.2,57.3,30.05,WSW,248,3.1,4.6,73,0.00,BKN,,0.07,WeatherDisplay:10.37,2013-07-29 16:02:00,
2013-07-29 12:07:00,66.7,57.4,30.05,SW,225,2.6,4.6,72,0.00,BKN,,0.07,WeatherDisplay:10.37,2013-07-29 16:07:00,
2013-07-29 12:12:00,66.9,57.6,30.05,SW,225,4.7,4.7,72,0.00,OVC,,0.07,WeatherDisplay:10.37,2013-07-29 16:12:00,
2013-07-29 12:17:00,68.2,58.0,30.05,WSW,248,2.3,3.5,70,0.00,OVC,,0.07,WeatherDisplay:10.37,2013-07-29 16:17:00,
2013-07-29 12:22:00,69.1,57.7,30.05,WSW,248,3.3,4.6,67,0.00,OVC,,0.07,WeatherDisplay:10.37,2013-07-29 16:22:00,
2013-07-29 12:27:00,68.5,57.5,30.05,WSW,248,4.8,7.3,68,0.00,OVC,,0.07,WeatherDisplay:10.37,2013-07-29 16:27:00,
2013-07-29 12:32:00,68.5,57.1,30.05,WSW,248,4.9,6.9,67,0.00,OVC,,0.07,WeatherDisplay:10.37,2013-07-29 16:32:00,
2013-07-29 12:37:00,69.1,57.3,30.05,NNW,338,4.1,5.8,66,0.00,OVC,,0.07,WeatherDisplay:10.37,2013-07-29 16:37:00,
2013-07-29 12:42:00,69.3,57.9,30.05,West,270,4.6,6.3,67,0.00,OVC,,0.07,WeatherDisplay:10.37,2013-07-29 16:42:00,
2013-07-29 12:47:00,69.4,58.0,30.05,SW,225,5.1,8.1,67,0.00,OVC,,0.07,WeatherDisplay:10.37,2013-07-29 16:47:00,
2013-07-29 12:52:00,70.2,57.9,30.05,SW,225,3.1,3.5,65,0.00,OVC,,0.07,WeatherDisplay:10.37,2013-07-29 16:52:00,
2013-07-29 12:57:00,69.8,57.1,30.05,SW,225,5.0,10.4,64,0.00,OVC,,0.07,WeatherDisplay:10.37,2013-07-29 16:57:00,
2013-07-29 13:03:00,69.6,56.9,30.05,West,270,5.4,8.3,64,0.00,OVC,,0.07,WeatherDisplay:10.37,2013-07-29 17:03:00,
2013-07-29 13:08:00,70.5,57.3,30.05,WSW,248,4.9,6.9,63,0.00,OVC,,0.07,WeatherDisplay:10.37,2013-07-29 17:08:00,
2013-07-29 13:13:00,69.8,55.7,30.05,West,270,5.4,6.9,61,0.00,OVC,,0.07,WeatherDisplay:10.37,2013-07-29 17:13:00,
2013-07-29 13:18:00,69.4,54.9,30.05,West,270,5.7,5.8,60,0.00,OVC,,0.07,WeatherDisplay:10.37,2013-07-29 17:18:00,
2013-07-29 13:23:00,69.4,55.8,30.05,West,270,5.4,5.8,62,0.00,OVC,,0.07,WeatherDisplay:10.37,2013-07-29 17:23:00,
2013-07-29 13:28:00,69.6,56.4,30.05,West,270,5.5,6.9,63,0.00,OVC,,0.07,WeatherDisplay:10.37,2013-07-29 17:28:00,
2013-07-29 13:33:00,68.9,55.3,30.05,WSW,248,5.8,6.9,62,0.00,OVC,,0.07,WeatherDisplay:10.37,2013-07-29 17:33:00,
2013-07-29 13:38:00,67.3,56.8,30.05,SW,225,11.3,12.7,69,0.00,OVC,,0.07,WeatherDisplay:10.37,2013-07-29 17:38:00,
2013-07-29 13:43:00,63.3,57.4,30.06,West,270,9.7,11.5,81,0.03,RA,,0.10,WeatherDisplay:10.37,2013-07-29 17:43:00,
2013-07-29 13:48:00,62.8,57.9,30.06,NW,315,4.5,5.8,84,0.03,RA,,0.10,WeatherDisplay:10.37,2013-07-29 17:48:00,
2013-07-29 13:53:00,63.1,57.9,30.06,North,360,3.5,4.6,83,0.03,OVC,,0.10,WeatherDisplay:10.37,2013-07-29 17:53:00,
2013-07-29 13:58:00,63.7,58.1,30.06,SSW,202,3.6,4.7,82,0.03,OVC,,0.10,WeatherDisplay:10.37,2013-07-29 17:58:00,
2013-07-29 14:03:00,63.9,58.3,30.06,West,270,4.6,5.8,82,0.03,OVC,,0.10,WeatherDisplay:10.37,2013-07-29 18:03:00,
2013-07-29 14:08:00,64.8,59.5,30.06,West,270,1.1,4.6,83,0.03,OVC,,0.10,WeatherDisplay:10.37,2013-07-29 18:08:00,
2013-07-29 14:13:00,65.3,59.3,30.06,SW,225,5.3,9.4,81,0.03,-RA,,0.10,WeatherDisplay:10.37,2013-07-29 18:13:00,
2013-07-29 14:19:00,65.5,59.2,30.06,SW,225,4.2,5.8,80,0.03,-RA,,0.10,WeatherDisplay:10.37,2013-07-29 18:19:00,
2013-07-29 14:24:00,66.2,59.1,30.06,SW,225,3.7,5.8,78,0.03,-RA,,0.10,WeatherDisplay:10.37,2013-07-29 18:24:00,
2013-07-29 14:29:00,66.9,59.5,30.06,SE,135,3.7,5.8,77,0.03,-RA,,0.10,WeatherDisplay:10.37,2013-07-29 18:29:00,
2013-07-29 14:34:00,66.6,58.4,30.06,West,270,3.7,4.6,75,0.03,-RA,,0.10,WeatherDisplay:10.37,2013-07-29 18:34:00,
2013-07-29 14:39:00,66.6,58.1,30.06,North,360,6.1,8.1,74,0.02,-RA,,0.10,WeatherDisplay:10.37,2013-07-29 18:39:00,
2013-07-29 14:45:00,65.7,57.9,30.06,SW,225,3.6,5.8,76,0.00,-RA,,0.10,WeatherDisplay:10.37,2013-07-29 18:45:00,
2013-07-29 14:50:00,64.9,57.1,30.06,WSW,255,6.0,8.0,76,0.00,-RA,-RA,0.10,WeatherDisplay:10.37,2013-07-29 18:50:00,
2013-07-29 14:55:00,64.3,56.9,30.06,WSW,242,3.0,8.0,77,0.00,-RA,-RA,0.10,WeatherDisplay:10.37,2013-07-29 18:55:00,
2013-07-29 15:00:00,64.6,57.2,30.06,WSW,246,3.0,6.0,77,0.00,-RA,-RA,0.10,WeatherDisplay:10.37,2013-07-29 19:00:00,
2013-07-29 15:05:00,64.3,56.6,30.06,WSW,256,5.0,7.0,76,0.00,-RA,-RA,0.10,WeatherDisplay:10.37,2013-07-29 19:05:00,
2013-07-29 15:10:00,64.2,56.8,30.06,West,259,3.0,6.0,77,0.00,-RA,-RA,0.10,WeatherDisplay:10.37,2013-07-29 19:10:00,
2013-07-29 15:15:00,64.9,57.2,30.06,North,360,3.3,5.8,76,0.00,-RA,,0.10,WeatherDisplay:10.37,2013-07-29 19:15:00,
2013-07-29 15:20:00,65.8,57.7,30.06,West,270,3.4,4.7,75,0.00,-RA,,0.10,WeatherDisplay:10.37,2013-07-29 19:20:00,
2013-07-29 15:25:00,65.7,57.2,30.06,ESE,112,5.1,5.8,74,0.00,-RA,,0.10,WeatherDisplay:10.37,2013-07-29 19:25:00,
2013-07-29 15:31:00,67.6,57.5,30.06,South,180,5.1,6.9,70,0.00,-RA,,0.10,WeatherDisplay:10.37,2013-07-29 19:31:00,
2013-07-29 15:36:00,68.5,57.5,30.06,ESE,112,5.1,5.1,68,0.00,-RA,,0.10,WeatherDisplay:10.37,2013-07-29 19:36:00,
2013-07-29 15:41:00,68.0,57.4,30.05,South,180,2.8,3.7,69,0.00,-RA,,0.10,WeatherDisplay:10.37,2013-07-29 19:41:00,
2013-07-29 15:46:00,67.6,56.7,30.05,South,180,5.9,10.4,68,0.00,-RA,,0.10,WeatherDisplay:10.37,2013-07-29 19:46:00,
2013-07-29 15:52:00,67.3,57.2,30.05,WNW,292,3.8,5.8,70,0.00,-RA,,0.10,WeatherDisplay:10.37,2013-07-29 19:52:00,
2013-07-29 15:57:00,67.6,57.1,30.06,West,270,4.9,8.1,69,0.00,-RA,,0.10,WeatherDisplay:10.37,2013-07-29 19:57:00,
2013-07-29 16:02:00,67.8,56.9,30.06,West,270,3.9,6.9,68,0.00,-RA,,0.10,WeatherDisplay:10.37,2013-07-29 20:02:00,
2013-07-29 16:07:00,69.4,57.5,30.06,West,270,5.0,5.8,66,0.00,-RA,,0.10,WeatherDisplay:10.37,2013-07-29 20:07:00,
2013-07-29 16:12:00,68.5,57.1,30.06,West,270,3.6,4.6,67,0.00,BKN,,0.10,WeatherDisplay:10.37,2013-07-29 20:12:00,
2013-07-29 16:17:00,67.5,56.6,30.06,SW,225,6.7,7.3,68,0.00,BKN,,0.10,WeatherDisplay:10.37,2013-07-29 20:17:00,
2013-07-29 16:22:00,67.6,56.7,30.06,West,270,5.1,6.9,68,0.00,BKN,,0.10,WeatherDisplay:10.37,2013-07-29 20:22:00,
2013-07-29 16:27:00,68.4,57.0,30.06,SSW,202,3.0,4.6,67,0.00,BKN,,0.10,WeatherDisplay:10.37,2013-07-29 20:27:00,
2013-07-29 16:32:00,68.0,56.6,30.05,West,270,4.1,5.8,67,0.00,BKN,,0.10,WeatherDisplay:10.37,2013-07-29 20:32:00,
2013-07-29 16:37:00,68.2,56.8,30.05,West,270,3.4,5.8,67,0.00,BKN,,0.10,WeatherDisplay:10.37,2013-07-29 20:37:00,
2013-07-29 16:42:00,70.2,57.9,30.05,SW,225,4.1,5.8,65,0.00,BKN,,0.10,WeatherDisplay:10.37,2013-07-29 20:42:00,
2013-07-29 16:47:00,69.1,56.8,30.05,West,270,3.3,4.6,65,0.00,BKN,,0.10,WeatherDisplay:10.37,2013-07-29 20:47:00,
2013-07-29 16:52:00,68.4,57.4,30.05,SW,225,2.5,4.6,68,0.00,BKN,,0.10,WeatherDisplay:10.37,2013-07-29 20:52:00,
2013-07-29 16:57:00,69.3,57.5,30.06,West,270,4.2,5.8,66,0.00,BKN,,0.10,WeatherDisplay:10.37,2013-07-29 20:57:00,
2013-07-29 17:03:00,70.0,57.7,30.06,SW,225,4.2,4.7,65,0.00,BKN,,0.10,WeatherDisplay:10.37,2013-07-29 21:03:00,
2013-07-29 17:08:00,68.9,57.1,30.05,WNW,292,4.9,6.9,66,0.00,BKN,,0.10,WeatherDisplay:10.37,2013-07-29 21:08:00,
2013-07-29 17:13:00,68.7,57.3,30.05,WSW,248,1.7,1.7,67,0.00,-RA,,0.10,WeatherDisplay:10.37,2013-07-29 21:13:00,
2013-07-29 17:19:00,68.2,57.6,30.06,WSW,248,5.7,7.3,69,0.00,-RA,,0.10,WeatherDisplay:10.37,2013-07-29 21:19:00,
2013-07-29 17:24:00,68.5,57.9,30.06,SW,225,3.9,4.6,69,0.00,-RA,,0.10,WeatherDisplay:10.37,2013-07-29 21:24:00,
2013-07-29 17:29:00,68.7,58.1,30.06,NW,315,7.1,8.1,69,0.00,-RA,,0.10,WeatherDisplay:10.37,2013-07-29 21:29:00,
2013-07-29 17:34:00,68.7,57.7,30.05,WSW,248,8.9,10.9,68,0.00,-RA,,0.10,WeatherDisplay:10.37,2013-07-29 21:34:00,
2013-07-29 17:40:00,68.9,57.9,30.05,WSW,251,9.0,11.0,68,0.00,-RA,-RA,0.10,WeatherDisplay:10.37,2013-07-29 21:40:00,
2013-07-29 17:45:00,69.3,57.5,30.06,SSW,202,7.9,10.4,66,0.00,-RA,,0.10,WeatherDisplay:10.37,2013-07-29 21:45:00,
2013-07-29 17:50:00,69.4,57.5,30.06,SSW,202,4.6,5.8,66,0.00,-RA,,0.10,WeatherDisplay:10.37,2013-07-29 21:50:00,
2013-07-29 17:55:00,69.6,57.3,30.05,SW,225,7.3,11.5,65,0.00,-RA,,0.10,WeatherDisplay:10.37,2013-07-29 21:55:00,
2013-07-29 18:00:00,70.3,57.5,30.05,WSW,248,7.4,10.4,64,0.00,-RA,,0.10,WeatherDisplay:10.37,2013-07-29 22:00:00,
2013-07-29 18:05:00,70.2,57.0,30.05,WSW,248,10.7,15.0,63,0.00,-RA,,0.10,WeatherDisplay:10.37,2013-07-29 22:05:00,
2013-07-29 18:10:00,70.9,57.7,30.06,SW,225,9.3,12.7,63,0.00,-RA,,0.10,WeatherDisplay:10.37,2013-07-29 22:10:00,
2013-07-29 18:15:00,71.6,57.9,30.06,WSW,248,8.6,11.5,62,0.00,BKN,,0.10,WeatherDisplay:10.37,2013-07-29 22:15:00,
2013-07-29 18:20:00,72.0,57.4,30.06,WSW,248,7.5,10.4,60,0.00,BKN,,0.10,WeatherDisplay:10.37,2013-07-29 22:20:00,
2013-07-29 18:25:00,69.4,55.8,30.06,SW,225,9.1,10.4,62,0.00,BKN,,0.10,WeatherDisplay:10.37,2013-07-29 22:25:00,
2013-07-29 18:30:00,68.7,55.6,30.06,West,270,7.8,11.4,63,0.00,BKN,,0.10,WeatherDisplay:10.37,2013-07-29 22:30:00,
2013-07-29 18:35:00,68.4,55.7,30.06,West,270,8.7,9.2,64,0.00,BKN,,0.10,WeatherDisplay:10.37,2013-07-29 22:35:00,
2013-07-29 18:40:00,68.4,56.2,30.07,NW,315,7.9,9.2,65,0.00,BKN,,0.10,WeatherDisplay:10.37,2013-07-29 22:40:00,
2013-07-29 18:45:00,68.4,56.6,30.07,West,270,8.6,10.4,66,0.00,BKN,,0.10,WeatherDisplay:10.37,2013-07-29 22:45:00,
2013-07-29 18:51:00,68.2,57.2,30.07,West,270,8.0,10.4,68,0.00,BKN,,0.10,WeatherDisplay:10.37,2013-07-29 22:51:00,
2013-07-29 18:56:00,68.9,57.5,30.07,SSW,202,8.1,8.3,67,0.00,BKN,,0.10,WeatherDisplay:10.37,2013-07-29 22:56:00,
2013-07-29 19:02:00,69.4,57.1,30.07,ESE,112,7.4,10.4,65,0.00,BKN,,0.10,WeatherDisplay:10.37,2013-07-29 23:02:00,
2013-07-29 19:07:00,70.0,56.8,30.07,SSW,202,7.1,12.7,63,0.00,BKN,,0.10,WeatherDisplay:10.37,2013-07-29 23:07:00,
2013-07-29 19:12:00,69.6,56.4,30.07,WSW,248,10.9,13.8,63,0.00,BKN,,0.10,WeatherDisplay:10.37,2013-07-29 23:12:00,
2013-07-29 19:17:00,69.8,56.6,30.07,West,270,9.1,10.4,63,0.00,BKN,,0.10,WeatherDisplay:10.37,2013-07-29 23:17:00,
2013-07-29 19:22:00,68.9,56.6,30.07,NW,315,5.0,6.9,65,0.00,BKN,,0.10,WeatherDisplay:10.37,2013-07-29 23:22:00,
2013-07-29 19:27:00,68.0,56.2,30.07,West,270,7.9,10.4,66,0.00,BKN,,0.10,WeatherDisplay:10.37,2013-07-29 23:27:00,
2013-07-29 19:32:00,67.8,56.4,30.08,NW,315,6.5,7.3,67,0.00,BKN,,0.10,WeatherDisplay:10.37,2013-07-29 23:32:00,
2013-07-29 19:37:00,67.1,56.6,30.08,WSW,248,6.6,9.2,69,0.00,BKN,,0.10,WeatherDisplay:10.37,2013-07-29 23:37:00,
2013-07-29 19:42:00,67.6,56.7,30.08,SW,225,6.3,9.2,68,0.00,BKN,,0.10,WeatherDisplay:10.37,2013-07-29 23:42:00,
2013-07-29 19:47:00,68.0,57.0,30.08,WSW,248,5.1,6.8,68,0.00,BKN,,0.10,WeatherDisplay:10.37,2013-07-29 23:47:00,
2013-07-29 19:52:00,68.2,57.2,30.08,West,270,4.1,6.9,68,0.00,BKN,,0.10,WeatherDisplay:10.37,2013-07-29 23:52:00,
2013-07-29 19:57:00,68.0,56.6,30.07,West,270,6.0,6.0,67,0.00,BKN,,0.10,WeatherDisplay:10.37,2013-07-29 23:57:00,
2013-07-29 20:02:00,67.8,56.0,30.07,WSW,248,6.9,10.4,66,0.00,BKN,,0.10,WeatherDisplay:10.37,2013-07-30 00:02:00,
2013-07-29 20:08:00,67.8,56.0,30.08,West,270,4.8,5.8,66,0.00,BKN,,0.10,WeatherDisplay:10.37,2013-07-30 00:08:00,
2013-07-29 20:13:00,67.6,55.8,30.08,WSW,248,6.6,6.9,66,0.00,BKN,,0.10,WeatherDisplay:10.37,2013-07-30 00:13:00,
2013-07-29 20:18:00,66.9,55.6,30.08,West,270,5.9,8.3,67,0.00,BKN,,0.10,WeatherDisplay:10.37,2013-07-30 00:18:00,
2013-07-29 20:23:00,66.6,55.7,30.08,West,270,6.6,8.1,68,0.00,BKN,,0.10,WeatherDisplay:10.37,2013-07-30 00:23:00,
2013-07-29 20:28:00,66.0,55.5,30.08,WSW,248,8.9,10.9,69,0.00,BKN,,0.10,WeatherDisplay:10.37,2013-07-30 00:28:00,
2013-07-29 20:33:00,65.8,55.3,30.08,SW,225,6.7,10.4,69,0.00,BKN,,0.10,WeatherDisplay:10.37,2013-07-30 00:33:00,
2013-07-29 20:38:00,65.7,55.2,30.08,West,270,4.2,5.8,69,0.00,BKN,,0.10,WeatherDisplay:10.37,2013-07-30 00:38:00,
2013-07-29 20:43:00,65.7,55.6,30.08,South,180,7.3,7.3,70,0.00,BKN,,0.10,WeatherDisplay:10.37,2013-07-30 00:43:00,
2013-07-29 20:48:00,65.5,55.5,30.08,West,270,5.6,8.1,70,0.00,BKN,,0.10,WeatherDisplay:10.37,2013-07-30 00:48:00,
2013-07-29 20:53:00,65.1,55.5,30.09,West,270,3.2,5.8,71,0.00,BKN,,0.10,WeatherDisplay:10.37,2013-07-30 00:53:00,
2013-07-29 20:58:00,65.1,55.5,30.09,SW,225,5.7,5.8,71,0.00,BKN,,0.10,WeatherDisplay:10.37,2013-07-30 00:58:00,
2013-07-29 21:03:00,65.1,55.5,30.09,SW,225,5.1,5.8,71,0.00,BKN,,0.10,WeatherDisplay:10.37,2013-07-30 01:03:00,
2013-07-29 21:09:00,64.9,55.7,30.09,WSW,248,5.1,6.9,72,0.00,BKN,,0.10,WeatherDisplay:10.37,2013-07-30 01:09:00,
2013-07-29 21:14:00,64.9,55.7,30.09,SW,225,5.4,6.3,72,0.00,SCT,,0.10,WeatherDisplay:10.37,2013-07-30 01:14:00,
2013-07-29 21:19:00,64.9,55.7,30.10,WSW,248,4.4,5.8,72,0.00,SCT,,0.10,WeatherDisplay:10.37,2013-07-30 01:19:00,
2013-07-29 21:24:00,64.9,56.0,30.10,SW,225,3.5,5.8,73,0.00,SCT,,0.10,WeatherDisplay:10.37,2013-07-30 01:24:00,
2013-07-29 21:29:00,64.8,55.9,30.10,WSW,248,4.4,4.7,73,0.00,SCT,,0.10,WeatherDisplay:10.37,2013-07-30 01:29:00,
2013-07-29 21:35:00,64.6,56.1,30.10,WSW,252,3.0,6.0,74,0.00,SCT,SCT,0.10,WeatherDisplay:10.37,2013-07-30 01:35:00,
2013-07-29 21:40:00,64.6,56.5,30.10,WSW,255,3.0,5.0,75,0.00,SCT,SCT,0.10,WeatherDisplay:10.37,2013-07-30 01:40:00,
2013-07-29 21:45:00,64.6,56.5,30.11,WSW,255,3.0,5.0,75,0.00,SCT,SCT,0.10,WeatherDisplay:10.37,2013-07-30 01:45:00,
2013-07-29 21:50:00,64.6,56.5,30.11,WSW,248,3.9,4.6,75,0.00,SCT,,0.10,WeatherDisplay:10.37,2013-07-30 01:50:00,
2013-07-29 21:55:00,64.8,56.7,30.12,WSW,252,3.0,5.0,75,0.00,SCT,SCT,0.10,WeatherDisplay:10.37,2013-07-30 01:55:00,
2013-07-29 22:00:00,64.8,56.7,30.12,WSW,256,5.0,5.0,75,0.00,SCT,SCT,0.10,WeatherDisplay:10.37,2013-07-30 02:00:00,
2013-07-29 22:05:00,64.8,56.7,30.12,West,270,4.2,4.7,75,0.00,SCT,,0.10,WeatherDisplay:10.37,2013-07-30 02:05:00,
2013-07-29 22:10:00,65.1,57.0,30.12,WSW,248,3.3,5.8,75,0.00,SCT,,0.10,WeatherDisplay:10.37,2013-07-30 02:10:00,
2013-07-29 22:15:00,65.1,57.0,30.12,WSW,248,3.0,6.0,75,0.00,SCT,SCT,0.10,WeatherDisplay:10.37,2013-07-30 02:15:00,
2013-07-29 22:20:00,65.1,57.0,30.12,West,270,2.6,3.5,75,0.00,SCT,,0.10,WeatherDisplay:10.37,2013-07-30 02:20:00,
2013-07-29 22:25:00,65.1,57.0,30.12,WSW,258,2.0,6.0,75,0.00,SCT,SCT,0.10,WeatherDisplay:10.37,2013-07-30 02:25:00,
2013-07-29 22:30:00,64.9,56.4,30.12,WSW,246,3.0,6.0,74,0.00,SCT,SCT,0.10,WeatherDisplay:10.37,2013-07-30 02:30:00,
2013-07-29 22:35:00,64.6,56.1,30.12,WSW,247,2.0,6.0,74,0.00,SCT,SCT,0.10,WeatherDisplay:10.37,2013-07-30 02:35:00,
2013-07-29 22:40:00,64.4,55.9,30.12,WSW,258,3.0,6.0,74,0.00,SCT,SCT,0.10,WeatherDisplay:10.37,2013-07-30 02:40:00,
2013-07-29 22:45:00,64.0,55.5,30.13,WSW,258,2.0,4.0,74,0.00,SCT,SCT,0.10,WeatherDisplay:10.37,2013-07-30 02:45:00,
2013-07-29 22:50:00,63.9,55.4,30.13,WSW,248,2.9,4.6,74,0.00,SCT,,0.10,WeatherDisplay:10.37,2013-07-30 02:50:00,
2013-07-29 22:55:00,63.9,55.4,30.13,WSW,249,3.0,5.0,74,0.00,SCT,SCT,0.10,WeatherDisplay:10.37,2013-07-30 02:55:00,
2013-07-29 23:00:00,63.7,55.3,30.13,West,267,3.0,5.0,74,0.00,SCT,SCT,0.10,WeatherDisplay:10.37,2013-07-30 03:00:00,
2013-07-29 23:05:00,63.5,55.1,30.13,West,262,2.0,5.0,74,0.00,SCT,SCT,0.10,WeatherDisplay:10.37,2013-07-30 03:05:00,
2013-07-29 23:10:00,63.1,55.0,30.13,West,270,1.6,2.3,75,0.00,SCT,,0.10,WeatherDisplay:10.37,2013-07-30 03:10:00,
2013-07-29 23:15:00,63.1,55.0,30.13,WSW,257,2.0,3.0,75,0.00,SCT,SCT,0.10,WeatherDisplay:10.37,2013-07-30 03:15:00,
2013-07-29 23:20:00,63.0,54.9,30.13,WSW,258,2.0,4.0,75,0.00,SCT,SCT,0.10,WeatherDisplay:10.37,2013-07-30 03:20:00,
2013-07-29 23:25:00,62.8,54.8,30.13,WSW,245,2.0,5.0,75,0.00,SCT,SCT,0.10,WeatherDisplay:10.37,2013-07-30 03:25:00,
2013-07-29 23:30:00,62.8,55.1,30.13,West,270,2.7,3.5,76,0.00,SCT,,0.10,WeatherDisplay:10.37,2013-07-30 03:30:00,
2013-07-29 23:35:00,62.6,54.9,30.13,West,270,3.0,3.7,76,0.00,SCT,,0.10,WeatherDisplay:10.37,2013-07-30 03:35:00,
2013-07-29 23:40:00,62.4,54.7,30.13,West,270,1.9,2.7,76,0.00,SCT,,0.10,WeatherDisplay:10.37,2013-07-30 03:40:00,
2013-07-29 23:45:00,62.4,54.7,30.13,West,270,2.7,3.5,76,0.00,SCT,,0.10,WeatherDisplay:10.37,2013-07-30 03:45:00,
2013-07-29 23:50:00,62.4,54.7,30.13,WSW,248,2.6,2.7,76,0.00,SCT,,0.10,WeatherDisplay:10.37,2013-07-30 03:50:00,
2013-07-29 23:55:00,62.4,54.7,30.14,WSW,248,2.3,2.7,76,0.00,SCT,,0.10,WeatherDisplay:10.37,2013-07-30 03:55:00,